Time;durP1;ratioP1;P1;durP2;ratioP2;P2;SDS_P1;SDS_P2;PMS_P1;PMS_P2;Temp;Humidity;BMP_temperature;BMP_pressure;BME280_temperature;BME280_humidity;BME280_pressure;Samples;Min_cycle;Max_cycle;Signal;HPM_P1;HPM_P2
2023/01/10 08:15:14;;;;;;;20.25;3.72;;;6.30;99.90;;;;;;4856144;29;20202;-85
2023/01/10 08:22:19;;;;;;;23.77;4.45;;;6.60;1.00;;;;;;4854323;29;20265;-86
2023/01/10 08:26:01;;;;;;;;;;;;;;;;;;;;;
2023/01/10 15:31:00;;;;;;;13.77;3.17;;;8.30;99.90;;;;;;4841129;29;20554;-86
2023/01/10 15:33:28;;;;;;;8.25;2.25;;;8.20;1.00;;;;;;4897123;29;20229;-87
2023/01/10 15:36:07;;;;;;;9.47;2.73;;;8.20;99.90;;;;;;4874836;29;20192;-83
2023/01/10 15:38:36;;;;;;;6.63;2.70;;;8.10;99.90;;;;;;4879318;29;20801;-86
2023/01/10 15:41:04;;;;;;;9.65;2.75;;;8.00;1.00;;;;;;4866702;29;20534;-85
2023/01/10 15:43:35;;;;;;;15.25;2.95;;;8.00;1.00;;;;;;4861238;29;20277;-86
2023/01/10 15:46:04;;;;;;;9.95;2.30;;;7.90;1.00;;;;;;4858623;29;20256;-85
2023/01/10 15:48:33;;;;;;;8.68;2.60;;;7.80;99.90;;;;;;4855814;29;20193;-85
2023/01/10 15:51:05;;;;;;;14.70;2.80;;;7.80;1.00;;;;;;4864121;29;20191;-85
2023/01/10 15:54:01;;;;;;;19.08;3.30;;;7.70;1.00;;;;;;4866877;29;20433;-86
2023/01/10 15:56:34;;;;;;;11.32;4.28;;;7.60;1.00;;;;;;4862617;29;20732;-83
2023/01/10 15:59:01;;;;;;;10.02;3.83;;;7.60;99.90;;;;;;4861507;29;20208;-84
2023/01/10 16:01:28;;;;;;;9.82;3.10;;;7.60;99.90;;;;;;4872503;29;20256;-83
2023/01/10 16:04:13;;;;;;;9.65;3.60;;;7.50;99.90;;;;;;4846878;29;20216;-85
2023/01/10 16:06:41;;;;;;;14.82;3.58;;;7.50;99.90;;;;;;4847727;29;20193;-83
2023/01/10 16:09:16;;;;;;;14.88;4.32;;;7.50;99.90;;;;;;4848719;29;20213;-84
2023/01/10 16:14:34;;;;;;;10.27;2.88;;;7.50;99.90;;;;;;4860014;29;20188;-86
2023/01/10 16:17:00;;;;;;;25.47;4.43;;;7.50;99.90;;;;;;4857823;29;20256;-83
2023/01/10 16:19:26;;;;;;;10.98;3.60;;;7.50;99.90;;;;;;4852250;29;20201;-83
2023/01/10 16:21:58;;;;;;;18.63;5.10;;;7.50;1.00;;;;;;4851925;29;20197;-84
2023/01/10 16:24:35;;;;;;;12.52;4.68;;;7.50;1.00;;;;;;4852347;29;20177;-83
2023/01/10 16:27:04;;;;;;;13.70;3.17;;;7.50;1.00;;;;;;4853474;29;20538;-83
2023/01/10 16:29:30;;;;;;;13.20;3.50;;;7.50;1.00;;;;;;4876410;29;20689;-84
2023/01/10 16:31:55;;;;;;;15.40;3.43;;;7.50;1.00;;;;;;4864546;29;20192;-84
2023/01/10 16:34:21;;;;;;;9.57;3.60;;;7.50;1.00;;;;;;4851565;29;20184;-84
2023/01/10 16:36:47;;;;;;;8.93;3.40;;;7.50;1.00;;;;;;4860018;29;20203;-82
2023/01/10 16:39:18;;;;;;;11.50;4.07;;;7.50;1.00;;;;;;4856276;29;20291;-85
2023/01/10 16:44:30;;;;;;;10.50;3.25;;;7.50;1.00;;;;;;4862000;29;20210;-85
2023/01/10 16:46:55;;;;;;;11.30;3.20;;;7.40;1.00;;;;;;4869115;29;20197;-86
2023/01/10 16:49:21;;;;;;;10.87;3.77;;;7.40;1.00;;;;;;4871574;29;20236;-86
2023/01/10 16:51:47;;;;;;;10.60;3.77;;;7.30;1.00;;;;;;4867225;29;20192;-85
2023/01/10 16:54:15;;;;;;;7.23;3.80;;;7.30;1.00;;;;;;4863340;29;20432;-87
2023/01/10 16:56:43;;;;;;;7.70;3.72;;;7.30;1.00;;;;;;4863674;29;20451;-86
2023/01/10 16:59:08;;;;;;;9.35;3.47;;;7.30;1.00;;;;;;4862195;29;20252;-85
2023/01/10 17:01:47;;;;;;;20.90;4.10;;;7.30;1.00;;;;;;4873379;29;20606;-86
2023/01/10 17:04:21;;;;;;;12.65;3.60;;;7.20;1.00;;;;;;4857923;29;20235;-85
2023/01/10 17:06:46;;;;;;;13.65;3.92;;;7.20;1.00;;;;;;4860600;29;20204;-84
2023/01/10 17:09:27;;;;;;;17.93;4.53;;;7.10;1.00;;;;;;4852018;29;20704;-86
2023/01/10 17:12:05;;;;;;;14.05;3.30;;;7.10;1.00;;;;;;4869370;29;20696;-86
2023/01/10 17:14:34;;;;;;;9.70;3.90;;;7.10;1.00;;;;;;4857130;29;20192;-86
2023/01/10 17:16:59;;;;;;;13.15;4.20;;;7.00;1.00;;;;;;4864016;29;20200;-85
2023/01/10 17:19:25;;;;;;;9.83;4.60;;;7.00;1.00;;;;;;4859814;29;20344;-85
2023/01/10 17:21:51;;;;;;;8.63;4.13;;;7.00;1.00;;;;;;4857119;29;20436;-85
2023/01/10 17:24:17;;;;;;;9.50;4.43;;;7.00;1.00;;;;;;4851790;29;20199;-84
2023/01/10 17:26:42;;;;;;;13.40;3.20;;;7.00;1.00;;;;;;4864882;29;20251;-85
2023/01/10 17:29:08;;;;;;;8.03;3.80;;;7.00;1.00;;;;;;4854321;29;20319;-85
2023/01/10 17:31:34;;;;;;;9.30;3.50;;;7.00;1.00;;;;;;4859077;29;20181;-85
2023/01/10 17:33:59;;;;;;;6.90;3.37;;;7.00;1.00;;;;;;4857707;29;20287;-86
2023/01/10 17:36:31;;;;;;;7.30;2.80;;;7.00;1.00;;;;;;4859728;29;20193;-84
2023/01/10 17:38:58;;;;;;;5.90;2.47;;;7.10;1.00;;;;;;4852469;29;20212;-85
2023/01/10 17:41:23;;;;;;;6.22;2.35;;;7.10;1.00;;;;;;4863419;29;20200;-85
2023/01/10 17:43:49;;;;;;;7.03;2.77;;;7.10;1.00;;;;;;4866610;29;20248;-85
2023/01/10 17:46:16;;;;;;;2.93;1.80;;;7.10;1.00;;;;;;4862833;29;20185;-85
2023/01/10 17:48:42;;;;;;;3.50;2.00;;;7.20;1.00;;;;;;4870194;29;20957;-85
2023/01/10 17:51:09;;;;;;;3.25;1.30;;;7.20;1.00;;;;;;4877447;29;20477;-86
2023/01/10 17:53:34;;;;;;;5.40;1.52;;;7.20;1.00;;;;;;4864989;29;20192;-85
2023/01/10 17:56:00;;;;;;;1.73;1.07;;;7.30;1.00;;;;;;4866793;29;20177;-86
2023/01/10 17:58:27;;;;;;;3.47;1.60;;;7.30;1.00;;;;;;4854537;29;20233;-86
2023/01/10 18:00:52;;;;;;;3.35;1.73;;;7.40;1.00;;;;;;4861640;29;20204;-85
2023/01/10 18:03:18;;;;;;;1.60;1.10;;;7.40;1.00;;;;;;4858489;29;20195;-86
2023/01/10 18:05:54;;;;;;;2.23;1.10;;;7.40;1.00;;;;;;4859480;29;20218;-85
2023/01/10 18:08:21;;;;;;;2.88;0.93;;;7.50;1.00;;;;;;4871398;29;20194;-85
2023/01/10 18:10:46;;;;;;;1.15;0.80;;;7.50;1.00;;;;;;4882000;29;20242;-84
2023/01/10 18:13:14;;;;;;;1.83;1.07;;;7.50;1.00;;;;;;4868429;29;20188;-85
2023/01/10 18:15:45;;;;;;;2.35;1.13;;;7.60;1.00;;;;;;4854904;29;20469;-85
2023/01/10 18:18:11;;;;;;;1.93;1.27;;;7.60;1.00;;;;;;4862811;29;20188;-84
2023/01/10 18:20:41;;;;;;;4.95;1.23;;;7.60;1.00;;;;;;4866389;29;20536;-83
2023/01/10 18:23:21;;;;;;;1.50;0.93;;;7.70;1.00;;;;;;4858567;29;20256;-86
2023/01/10 18:26:10;;;;;;;1.98;1.10;;;7.70;1.00;;;;;;4878822;29;20181;-85
2023/01/10 18:28:41;;;;;;;3.45;1.20;;;7.80;1.00;;;;;;4862143;29;20247;-85
2023/01/10 18:31:10;;;;;;;1.75;1.10;;;7.80;1.00;;;;;;4870223;29;20192;-86
2023/01/10 18:33:36;;;;;;;1.58;1.10;;;7.80;1.00;;;;;;4856599;29;20201;-85
2023/01/10 18:36:05;;;;;;;4.35;0.90;;;7.90;1.00;;;;;;4857296;29;20188;-86
2023/01/10 18:38:31;;;;;;;2.03;1.10;;;7.90;1.00;;;;;;4876497;29;20180;-85
2023/01/10 18:40:57;;;;;;;1.67;0.70;;;7.90;1.00;;;;;;4863948;29;20480;-84
2023/01/10 18:43:23;;;;;;;1.73;1.03;;;8.00;1.00;;;;;;4853402;29;20181;-84
2023/01/10 18:45:58;;;;;;;1.40;1.00;;;8.00;1.00;;;;;;4853617;29;20199;-85
2023/01/10 18:48:24;;;;;;;3.25;1.05;;;8.00;1.00;;;;;;4856863;29;20862;-85
2023/01/10 18:50:54;;;;;;;1.77;1.20;;;8.10;1.00;;;;;;4859517;29;20252;-85
2023/01/10 18:53:19;;;;;;;5.30;1.00;;;8.10;1.00;;;;;;4850176;29;20185;-85
2023/01/10 18:55:57;;;;;;;1.00;0.70;;;8.20;1.00;;;;;;4852355;29;20199;-84
2023/01/10 18:58:27;;;;;;;2.33;0.90;;;8.20;1.00;;;;;;4853335;29;20550;-84
2023/01/10 19:00:53;;;;;;;2.60;1.13;;;8.20;1.00;;;;;;4871425;29;20227;-85
2023/01/10 19:03:21;;;;;;;2.57;1.20;;;8.20;1.00;;;;;;4854536;29;20283;-84
2023/01/10 19:05:47;;;;;;;0.90;0.60;;;8.30;1.00;;;;;;4860762;29;20427;-85
2023/01/10 19:08:12;;;;;;;2.40;0.97;;;8.30;1.00;;;;;;4858604;29;20539;-85
2023/01/10 19:10:41;;;;;;;1.63;0.80;;;8.30;1.00;;;;;;4862981;29;20219;-85
2023/01/10 19:13:07;;;;;;;2.13;0.90;;;8.40;1.00;;;;;;4857828;29;20649;-85
2023/01/10 19:15:32;;;;;;;2.63;1.30;;;8.40;1.00;;;;;;4856727;29;20544;-85
2023/01/10 19:17:58;;;;;;;2.63;0.97;;;8.40;1.00;;;;;;4849973;29;20220;-86
2023/01/10 19:20:24;;;;;;;5.83;1.07;;;8.50;1.00;;;;;;4847253;29;20208;-87
2023/01/10 19:22:51;;;;;;;3.90;1.30;;;8.50;1.00;;;;;;4867326;29;20193;-85
2023/01/10 19:25:17;;;;;;;2.17;1.37;;;8.50;1.00;;;;;;4860737;29;20196;-85
2023/01/10 19:27:43;;;;;;;2.60;1.20;;;8.60;1.00;;;;;;4860487;29;20433;-85
2023/01/10 19:30:09;;;;;;;1.30;0.87;;;8.60;1.00;;;;;;4844194;29;20201;-86
2023/01/10 19:32:38;;;;;;;2.80;0.90;;;8.60;1.00;;;;;;4844482;29;20254;-86
2023/01/10 19:35:05;;;;;;;1.83;1.10;;;8.60;1.00;;;;;;4868948;29;20444;-86
2023/01/10 19:37:31;;;;;;;1.80;1.10;;;8.60;1.00;;;;;;4852773;29;20488;-85
2023/01/10 19:39:57;;;;;;;1.37;0.90;;;8.60;1.00;;;;;;4857479;29;20487;-85
2023/01/10 19:42:22;;;;;;;0.93;0.70;;;8.60;1.00;;;;;;4863391;29;20441;-86
2023/01/10 19:44:48;;;;;;;1.50;0.83;;;8.60;1.00;;;;;;4843871;29;20196;-86
2023/01/10 19:47:14;;;;;;;2.53;0.83;;;8.70;1.00;;;;;;4858928;29;20279;-86
2023/01/10 19:49:40;;;;;;;1.07;0.67;;;8.70;1.00;;;;;;4845676;29;20207;-84
2023/01/10 19:52:06;;;;;;;1.60;0.70;;;8.70;1.00;;;;;;4860533;29;20514;-85
2023/01/10 19:54:32;;;;;;;1.60;0.80;;;8.70;1.00;;;;;;4863255;29;20460;-85
2023/01/10 19:56:58;;;;;;;1.00;0.60;;;8.70;1.00;;;;;;4861176;29;20818;-85
2023/01/10 19:59:24;;;;;;;1.33;0.77;;;8.80;1.00;;;;;;4864808;29;20568;-85
2023/01/10 20:01:49;;;;;;;2.30;0.70;;;8.80;1.00;;;;;;4847027;29;20445;-86
2023/01/10 20:04:16;;;;;;;1.57;0.70;;;8.80;1.00;;;;;;4861978;29;20180;-84
2023/01/10 20:06:46;;;;;;;1.20;0.70;;;8.80;1.00;;;;;;4866537;29;20181;-85
2023/01/10 20:09:15;;;;;;;4.43;0.60;;;8.90;1.00;;;;;;4859822;29;20446;-85
2023/01/10 20:11:44;;;;;;;1.43;0.70;;;8.90;1.00;;;;;;4861372;29;20425;-85
2023/01/10 20:14:16;;;;;;;1.10;0.63;;;8.90;1.00;;;;;;4859974;29;20471;-85
2023/01/10 20:16:42;;;;;;;1.50;0.70;;;8.90;1.00;;;;;;4853994;29;20469;-86
2023/01/10 20:19:09;;;;;;;1.50;0.77;;;8.90;1.00;;;;;;4858877;29;20511;-86
2023/01/10 20:21:36;;;;;;;1.33;0.70;;;8.90;1.00;;;;;;4865274;29;20559;-87
2023/01/10 20:24:06;;;;;;;1.47;0.67;;;8.90;1.00;;;;;;4877282;29;20539;-86
2023/01/10 20:26:31;;;;;;;1.10;0.70;;;8.90;1.00;;;;;;4857514;29;20521;-86
2023/01/10 20:29:01;;;;;;;1.30;0.63;;;8.90;1.00;;;;;;4871591;29;20525;-86
2023/01/10 20:31:27;;;;;;;2.20;0.90;;;8.90;1.00;;;;;;4881252;29;20200;-86
2023/01/10 20:33:58;;;;;;;1.00;0.67;;;9.00;1.00;;;;;;4890355;29;20482;-88
2023/01/10 20:36:25;;;;;;;0.90;0.60;;;9.00;1.00;;;;;;4881635;29;20479;-86
2023/01/10 20:38:51;;;;;;;1.97;0.80;;;9.00;1.00;;;;;;4877982;29;20449;-85
2023/01/10 20:41:20;;;;;;;1.20;0.80;;;9.00;1.00;;;;;;4872301;29;20429;-84
2023/01/10 20:43:46;;;;;;;2.03;0.70;;;9.00;1.00;;;;;;4869489;29;20469;-85
2023/01/10 20:46:23;;;;;;;5.90;0.93;;;9.00;1.00;;;;;;4871110;29;20519;-86
2023/01/10 20:48:50;;;;;;;1.27;0.80;;;9.00;1.00;;;;;;4865233;29;20461;-86
2023/01/10 20:51:19;;;;;;;1.20;0.70;;;9.00;1.00;;;;;;4880031;29;20448;-87
2023/01/10 20:53:45;;;;;;;1.20;0.77;;;9.00;1.00;;;;;;4867553;29;20888;-88
2023/01/10 20:56:14;;;;;;;1.20;0.67;;;9.00;1.00;;;;;;4868466;29;20452;-85
2023/01/10 20:58:42;;;;;;;5.00;0.60;;;9.00;1.00;;;;;;4860523;29;20452;-86
2023/01/10 21:01:18;;;;;;;;;;;;;;;;;;;;;
2023/01/10 21:03:45;;;;;;;1.03;0.60;;;9.10;1.00;;;;;;4867881;29;20970;-90
2023/01/10 21:06:13;;;;;;;1.77;0.80;;;9.10;1.00;;;;;;4861407;29;20896;-86
2023/01/10 21:08:38;;;;;;;0.93;0.60;;;9.10;1.00;;;;;;4868973;29;20184;-85
2023/01/10 21:11:05;;;;;;;1.70;0.70;;;9.20;1.00;;;;;;4866710;29;20532;-89
2023/01/10 21:13:32;;;;;;;1.80;0.70;;;9.20;1.00;;;;;;4885960;29;20191;-88
2023/01/10 21:15:58;;;;;;;2.03;0.80;;;9.20;1.00;;;;;;4871852;29;20466;-88
2023/01/10 21:18:29;;;;;;;1.13;0.70;;;9.20;1.00;;;;;;4857431;29;20535;-86
2023/01/10 21:28:43;;;;;;;;;;;;;;;;;;;;;
2023/01/10 21:48:46;;;;;;;1.73;0.90;;;9.50;1.00;;;;;;5615697;23;21036;-87
2023/01/10 21:52:03;;;;;;;;;;;;;;;;;;;;;
2023/01/10 21:54:30;;;;;;;2.30;0.67;;;9.60;1.00;;;;;;4881911;29;20445;-87
2023/01/10 21:57:10;;;;;;;1.10;0.80;;;9.60;1.00;;;;;;4880730;29;20503;-87
2023/01/10 22:00:04;;;;;;;1.27;0.67;;;9.60;1.00;;;;;;4882938;29;20508;-85
2023/01/10 22:02:29;;;;;;;1.23;0.67;;;9.60;1.00;;;;;;4877596;29;20452;-87
2023/01/10 22:42:39;;;;;;;1.80;0.93;;;9.90;1.00;;;;;;5405031;23;20489;-85
2023/01/10 22:51:34;;;;;;;2.70;0.90;;;9.90;1.00;;;;;;2804322;27;20842;-85
2023/01/10 22:58:50;;;;;;;;;;;;;;;;;;;;;
2023/01/10 23:05:30;;;;;;;;;;;;;;;;;;;;;
2023/01/10 23:15:15;;;;;;;1.77;0.80;;;10.00;1.00;;;;;;4830975;29;20490;-86
2023/01/10 23:29:07;;;;;;;;;;;;;;;;;;;;;
2023/01/10 23:31:58;;;;;;;1.33;0.73;;;10.20;1.00;;;;;;4865001;29;20465;-86
2023/01/10 23:34:27;;;;;;;3.03;0.70;;;10.20;1.00;;;;;;4858057;29;20441;-87
2023/01/10 23:37:05;;;;;;;1.87;0.80;;;10.30;1.00;;;;;;4867946;29;20437;-86
2023/01/10 23:39:31;;;;;;;1.50;0.90;;;10.30;1.00;;;;;;4869005;29;20499;-88
2023/01/10 23:41:56;;;;;;;1.80;0.80;;;10.40;99.90;;;;;;4866708;29;20829;-88
2023/01/10 23:44:23;;;;;;;1.73;0.70;;;10.40;99.90;;;;;;4858974;29;20177;-87
2023/01/10 23:46:49;;;;;;;1.40;0.60;;;10.50;99.90;;;;;;4870813;29;20243;-87
2023/01/10 23:49:14;;;;;;;1.87;0.60;;;10.50;99.90;;;;;;4868874;29;20493;-88
2023/01/10 23:51:40;;;;;;;1.30;0.70;;;10.50;99.90;;;;;;4884043;29;20196;-88
2023/01/10 23:54:05;;;;;;;2.17;0.57;;;10.50;99.90;;;;;;4877356;29;20192;-85
2023/01/10 23:56:31;;;;;;;1.77;0.60;;;10.50;99.90;;;;;;4875945;29;20192;-88
2023/01/10 23:58:56;;;;;;;1.30;0.60;;;10.50;99.90;;;;;;4881201;29;20839;-88
